Time;durP1;ratioP1;P1;durP2;ratioP2;P2;SDS_P1;SDS_P2;PMS_P1;PMS_P2;Temp;Humidity;BMP_temperature;BMP_pressure;BME280_temperature;BME280_humidity;BME280_pressure;Samples;Min_cycle;Max_cycle;Signal;HPM_P1;HPM_P2
2021/09/29 00:02:11;;;;;;;2.67;1.60;;;;;;;12.37;53.25;101337.34;7995028;28;20044;-67
2021/09/29 00:06:02;;;;;;;2.72;1.23;;;;;;;12.31;53.21;101333.31;7997158;28;20025;-67
2021/09/29 00:09:53;;;;;;;5.00;1.65;;;;;;;12.31;53.29;101333.31;7997551;28;20124;-66
2021/09/29 00:13:44;;;;;;;5.28;1.30;;;;;;;12.24;53.23;101326.75;8000414;28;20032;-67
2021/09/29 00:17:34;;;;;;;3.83;1.23;;;;;;;12.27;53.25;101336.28;7982464;28;20037;-66
2021/09/29 00:21:25;;;;;;;2.20;1.05;;;;;;;12.22;53.06;101331.31;8003871;28;20125;-66
2021/09/29 00:25:16;;;;;;;4.05;1.60;;;;;;;12.20;53.30;101329.69;7991039;28;20033;-66
2021/09/29 00:29:06;;;;;;;3.88;1.83;;;;;;;12.16;53.28;101326.41;7992249;28;20025;-66
2021/09/29 00:33:02;;;;;;;2.85;1.30;;;;;;;12.04;53.11;101308.78;7979367;28;20029;-67
2021/09/29 00:36:52;;;;;;;2.90;1.25;;;;;;;11.99;53.04;101298.56;7988046;28;20029;-68
2021/09/29 00:40:43;;;;;;;2.30;1.33;;;;;;;12.01;52.70;101304.59;7982292;28;20032;-68
2021/09/29 00:44:34;;;;;;;4.45;1.40;;;;;;;11.96;53.25;101301.41;7976326;28;20033;-68
2021/09/29 00:48:24;;;;;;;6.38;1.77;;;;;;;11.94;53.41;101291.88;7973696;28;20049;-68
2021/09/29 00:52:15;;;;;;;4.85;1.58;;;;;;;11.91;53.35;101289.47;7981335;28;20076;-67
2021/09/29 00:56:08;;;;;;;5.07;1.67;;;;;;;11.88;53.43;101285.25;7984644;28;20048;-67
2021/09/29 00:59:59;;;;;;;5.97;1.80;;;;;;;11.86;53.42;101279.22;7985747;28;20045;-68
2021/09/29 01:03:52;;;;;;;5.03;1.80;;;;;;;11.85;53.59;101280.19;7986479;28;20037;-67
2021/09/29 01:08:03;;;;;;;5.30;2.15;;;;;;;11.83;53.71;101278.59;7987823;28;20061;-67
2021/09/29 01:12:14;;;;;;;2.92;1.70;;;;;;;11.81;53.70;101270.78;7989531;28;20065;-67
2021/09/29 01:16:07;;;;;;;3.15;1.60;;;;;;;11.76;53.97;101256.25;7996470;28;20659;-68
2021/09/29 01:20:16;;;;;;;5.65;1.67;;;;;;;11.77;53.86;101261.41;7987265;28;20130;-68
2021/09/29 01:24:19;;;;;;;4.10;2.10;;;;;;;11.78;53.78;101254.34;7980080;28;20026;-68
2021/09/29 01:28:11;;;;;;;4.63;2.05;;;;;;;11.77;54.07;101245.59;7981397;28;20442;-68
2021/09/29 01:32:03;;;;;;;4.78;1.73;;;;;;;11.79;54.09;101237.63;7982110;28;20537;-67
2021/09/29 01:35:54;;;;;;;5.65;2.10;;;;;;;11.77;54.13;101235.06;7981100;28;20083;-68
2021/09/29 01:39:45;;;;;;;3.33;1.80;;;;;;;11.78;54.18;101231.50;7982143;28;20041;-68
2021/09/29 01:43:36;;;;;;;4.72;2.03;;;;;;;11.79;54.18;101221.81;7982318;28;20063;-68
2021/09/29 01:47:27;;;;;;;5.90;2.10;;;;;;;11.78;54.29;101213.06;7983768;28;20032;-67
2021/09/29 01:51:19;;;;;;;3.72;1.88;;;;;;;11.78;54.19;101215.72;7986210;28;20029;-67
2021/09/29 01:55:17;;;;;;;4.07;2.17;;;;;;;11.77;54.11;101207.94;7987035;28;20144;-68
2021/09/29 01:59:07;;;;;;;4.05;1.95;;;;;;;11.76;54.02;101198.34;7988641;28;20036;-68
2021/09/29 02:02:59;;;;;;;6.25;2.05;;;;;;;11.76;54.20;101193.09;7989241;28;20044;-68
2021/09/29 02:06:55;;;;;;;2.75;1.38;;;;;;;11.75;54.20;101189.59;7990766;28;20076;-68
2021/09/29 02:10:46;;;;;;;5.05;1.90;;;;;;;11.75;54.31;101188.75;7978146;28;20026;-68
2021/09/29 02:14:36;;;;;;;2.70;1.67;;;;;;;11.74;54.34;101182.66;7977819;28;20036;-68
2021/09/29 02:18:27;;;;;;;5.72;2.00;;;;;;;11.73;54.24;101183.59;7976606;28;20043;-68
2021/09/29 02:22:18;;;;;;;7.30;1.90;;;;;;;11.74;54.37;101179.16;7978026;28;20025;-68
2021/09/29 02:26:08;;;;;;;3.90;1.85;;;;;;;11.72;54.36;101176.66;7980001;28;20110;-68
2021/09/29 02:29:59;;;;;;;5.45;1.95;;;;;;;11.71;54.41;101174.09;7981186;28;20038;-68
2021/09/29 02:33:50;;;;;;;2.33;1.65;;;;;;;11.71;54.32;101182.00;7982684;28;20046;-68
2021/09/29 02:37:40;;;;;;;5.05;2.00;;;;;;;11.68;54.35;101169.06;7984411;28;20048;-69
2021/09/29 02:41:31;;;;;;;4.53;1.63;;;;;;;11.64;54.20;101162.31;7977864;28;20045;-68
2021/09/29 02:45:22;;;;;;;5.80;2.05;;;;;;;11.57;54.26;101151.31;7976032;28;20025;-68
2021/09/29 02:49:12;;;;;;;8.18;2.35;;;;;;;11.57;54.22;101165.34;7980598;28;20867;-68
2021/09/29 02:53:03;;;;;;;3.33;1.60;;;;;;;11.53;54.33;101153.28;7989821;28;20162;-68
2021/09/29 02:56:54;;;;;;;4.22;1.73;;;;;;;11.49;54.18;101149.16;7977859;28;20034;-68
2021/09/29 03:00:44;;;;;;;5.93;2.00;;;;;;;11.46;54.30;101145.91;7976055;28;20553;-68
2021/09/29 03:04:35;;;;;;;3.85;1.95;;;;;;;11.40;54.32;101139.25;7978267;28;20063;-68
2021/09/29 03:08:26;;;;;;;4.10;2.10;;;;;;;11.34;54.19;101133.56;7981765;28;20767;-68
2021/09/29 03:12:16;;;;;;;3.50;1.92;;;;;;;11.34;54.05;101149.34;7982387;28;20041;-68
2021/09/29 03:16:07;;;;;;;2.85;1.30;;;;;;;11.28;54.11;101142.66;7983826;28;20033;-69
2021/09/29 03:19:57;;;;;;;5.40;1.98;;;;;;;11.23;54.13;101138.69;7984216;28;20082;-68
2021/09/29 03:23:48;;;;;;;4.78;1.98;;;;;;;11.13;54.00;101130.53;7970087;28;20041;-68
2021/09/29 03:27:38;;;;;;;3.80;1.60;;;;;;;11.13;53.97;101133.16;7985378;28;20115;-68
2021/09/29 03:31:29;;;;;;;2.95;1.38;;;;;;;11.07;53.97;101123.00;7986024;28;20527;-68
2021/09/29 03:35:20;;;;;;;3.88;1.55;;;;;;;11.01;54.13;101121.63;7987660;28;20064;-68
2021/09/29 03:39:10;;;;;;;4.07;1.33;;;;;;;10.97;54.14;101114.88;7981163;28;20034;-68
2021/09/29 03:43:01;;;;;;;5.05;1.48;;;;;;;10.92;53.99;101103.81;7976577;28;20033;-68
2021/09/29 03:46:52;;;;;;;1.77;1.20;;;;;;;10.88;54.07;101104.97;7977955;28;20041;-68
2021/09/29 03:50:42;;;;;;;6.50;1.67;;;;;;;10.85;54.17;101101.69;7983721;28;20098;-68
2021/09/29 03:54:33;;;;;;;2.95;1.48;;;;;;;10.81;54.06;101098.41;7970514;28;20048;-67
2021/09/29 03:58:23;;;;;;;6.55;1.48;;;;;;;10.78;54.22;101090.69;7973212;28;20074;-68
2021/09/29 04:02:14;;;;;;;4.50;1.55;;;;;;;10.76;54.33;101091.75;7985134;28;20037;-68
2021/09/29 04:06:04;;;;;;;4.22;1.77;;;;;;;10.73;54.31;101090.19;7985723;28;20031;-68
2021/09/29 04:09:55;;;;;;;2.63;1.60;;;;;;;10.70;54.47;101090.34;7987176;28;20736;-68
2021/09/29 04:13:46;;;;;;;2.28;1.80;;;;;;;10.66;54.27;101084.44;7994151;28;20044;-68
2021/09/29 04:17:37;;;;;;;2.65;1.60;;;;;;;10.64;54.31;101083.72;7995383;28;20043;-68
2021/09/29 04:21:27;;;;;;;2.80;1.27;;;;;;;10.63;54.54;101087.28;7993649;28;20029;-68
2021/09/29 04:25:18;;;;;;;9.25;2.30;;;;;;;10.61;54.56;101090.94;7992975;28;20029;-68
2021/09/29 04:29:09;;;;;;;5.95;1.75;;;;;;;10.61;54.52;101083.06;7982194;28;20639;-68
2021/09/29 04:33:00;;;;;;;2.47;1.50;;;;;;;10.55;54.57;101076.41;7978278;28;20045;-68
2021/09/29 04:36:50;;;;;;;3.67;1.77;;;;;;;10.57;54.74;101079.75;7980498;28;20044;-68
2021/09/29 04:40:41;;;;;;;4.60;1.58;;;;;;;10.57;54.79;101076.31;7974435;28;20038;-68
2021/09/29 04:44:31;;;;;;;5.03;1.50;;;;;;;10.56;54.90;101077.25;7980254;28;20041;-68
2021/09/29 04:48:22;;;;;;;2.42;1.70;;;;;;;10.52;54.77;101060.00;7980618;28;20087;-68
2021/09/29 04:52:13;;;;;;;3.85;1.30;;;;;;;10.58;54.89;101064.84;7988313;28;20037;-68
2021/09/29 04:56:03;;;;;;;2.90;1.60;;;;;;;10.60;55.08;101065.59;7988043;28;20022;-68
2021/09/29 04:59:54;;;;;;;4.63;1.30;;;;;;;10.61;55.17;101064.69;7989194;28;20021;-68
2021/09/29 05:03:45;;;;;;;2.13;1.40;;;;;;;10.64;54.99;101056.59;7989972;28;20489;-68
2021/09/29 05:07:35;;;;;;;5.68;1.38;;;;;;;10.60;55.28;101044.59;7991003;28;20044;-68
2021/09/29 05:11:34;;;;;;;4.25;1.60;;;;;;;10.72;55.38;101061.34;7995524;28;20025;-67
2021/09/29 05:15:25;;;;;;;2.45;1.17;;;;;;;10.73;55.36;101045.50;7971516;28;20041;-67
2021/09/29 05:19:16;;;;;;;5.00;1.52;;;;;;;10.79;55.40;101045.09;7980115;28;20141;-67
2021/09/29 05:23:06;;;;;;;4.80;1.75;;;;;;;10.81;55.31;101045.00;7980921;28;20045;-67
2021/09/29 05:26:57;;;;;;;3.15;1.95;;;;;;;10.83;55.48;101046.59;7982759;28;20052;-67
2021/09/29 05:30:48;;;;;;;2.95;1.48;;;;;;;10.85;55.61;101054.38;7982064;28;20040;-67
2021/09/29 05:34:38;;;;;;;3.13;1.58;;;;;;;10.88;55.64;101051.56;7965750;28;20041;-67
2021/09/29 05:38:29;;;;;;;2.28;1.48;;;;;;;10.92;55.67;101059.13;7984558;28;20397;-67
2021/09/29 05:42:19;;;;;;;1.92;1.42;;;;;;;10.96;55.86;101062.41;7982530;28;20534;-67
2021/09/29 05:46:10;;;;;;;3.28;1.70;;;;;;;10.88;55.89;101051.56;7984062;28;20039;-67
2021/09/29 05:50:01;;;;;;;3.70;1.63;;;;;;;11.02;55.93;101068.13;7982011;28;20047;-67
2021/09/29 05:53:51;;;;;;;4.25;1.70;;;;;;;11.07;56.02;101066.03;7961206;28;20041;-66
2021/09/29 05:57:42;;;;;;;2.05;1.52;;;;;;;11.04;56.02;101053.09;7970742;28;20043;-66
2021/09/29 06:01:32;;;;;;;4.43;1.50;;;;;;;11.13;56.21;101065.63;8005028;28;20461;-66
2021/09/29 06:05:23;;;;;;;2.45;1.63;;;;;;;11.16;56.26;101070.69;7981560;28;20024;-66
2021/09/29 06:09:14;;;;;;;4.80;1.63;;;;;;;11.19;56.24;101063.56;7977641;28;20412;-67
2021/09/29 06:13:04;;;;;;;4.10;1.42;;;;;;;11.21;56.48;101067.75;7971254;28;20598;-67
2021/09/29 06:17:00;;;;;;;2.95;1.40;;;;;;;11.22;56.61;101061.56;7980070;28;20048;-67
2021/09/29 06:20:52;;;;;;;2.42;1.25;;;;;;;11.26;56.56;101051.69;7987110;28;20048;-67
2021/09/29 06:24:42;;;;;;;4.40;2.15;;;;;;;11.27;56.54;101051.59;7977864;28;20041;-67
2021/09/29 06:28:37;;;;;;;2.50;1.40;;;;;;;11.28;56.52;101039.25;7986804;28;20036;-67
2021/09/29 06:32:27;;;;;;;3.38;1.73;;;;;;;11.31;56.82;101039.06;7979093;28;20060;-66
2021/09/29 06:36:18;;;;;;;2.92;1.45;;;;;;;11.33;56.81;101045.06;7984621;28;20034;-67
2021/09/29 06:40:16;;;;;;;3.85;1.92;;;;;;;11.32;56.71;101036.31;7988783;28;20559;-67
2021/09/29 06:44:08;;;;;;;3.95;1.60;;;;;;;11.33;56.90;101031.91;7988524;28;20033;-67
2021/09/29 06:47:58;;;;;;;4.32;1.95;;;;;;;11.34;56.72;101033.59;7995362;28;20045;-67
2021/09/29 06:51:49;;;;;;;4.60;1.98;;;;;;;11.36;56.94;101040.44;7967637;28;20041;-67
2021/09/29 06:55:39;;;;;;;3.30;1.38;;;;;;;11.37;56.90;101039.50;7976709;28;20052;-67
2021/09/29 06:59:30;;;;;;;4.57;1.63;;;;;;;11.39;56.92;101042.03;7979046;28;20049;-67
2021/09/29 07:03:22;;;;;;;3.97;1.67;;;;;;;11.42;57.06;101044.47;7968783;28;20044;-67
2021/09/29 07:07:12;;;;;;;1.73;1.23;;;;;;;11.45;57.09;101036.34;7977324;28;20505;-67
2021/09/29 07:11:03;;;;;;;3.70;1.70;;;;;;;11.45;57.06;101036.34;7986840;28;20082;-67
2021/09/29 07:14:54;;;;;;;4.00;1.70;;;;;;;11.42;57.56;101026.03;7982845;28;20030;-67
2021/09/29 07:18:45;;;;;;;4.72;1.40;;;;;;;11.50;57.42;101029.00;7980663;28;20036;-67
2021/09/29 07:22:36;;;;;;;5.38;1.80;;;;;;;11.55;57.32;101029.53;7984544;28;20025;-66
2021/09/29 07:26:26;;;;;;;4.30;2.28;;;;;;;11.54;57.53;101028.69;7981845;28;20070;-65
2021/09/29 07:30:17;;;;;;;2.22;1.27;;;;;;;11.66;57.67;101040.19;7984012;28;20511;-66
2021/09/29 07:34:08;;;;;;;3.47;1.30;;;;;;;11.73;57.58;101040.66;7992339;28;20111;-65
2021/09/29 07:38:00;;;;;;;2.80;1.40;;;;;;;11.76;57.74;101038.66;7994816;28;20035;-66
2021/09/29 07:41:50;;;;;;;1.98;1.30;;;;;;;11.78;57.77;101031.47;7976315;28;20040;-66
2021/09/29 07:45:41;;;;;;;7.10;1.35;;;;;;;11.83;58.17;101018.84;7982418;28;20040;-65
2021/09/29 07:49:32;;;;;;;3.00;1.25;;;;;;;11.88;57.86;101019.38;7982203;28;20115;-66
2021/09/29 07:53:25;;;;;;;1.00;0.90;;;;;;;11.84;57.87;101010.00;7982854;28;20025;-66
2021/09/29 07:57:16;;;;;;;0.60;0.60;;;;;;;11.94;57.88;101016.31;7984452;28;20916;-66
2021/09/29 08:01:06;;;;;;;3.13;0.93;;;;;;;11.95;58.22;101020.63;7986198;28;20021;-67
2021/09/29 08:05:01;;;;;;;1.10;0.70;;;;;;;11.96;57.81;101011.78;7991505;28;20501;-66
2021/09/29 08:08:53;;;;;;;1.33;1.10;;;;;;;11.99;58.13;101010.72;7988911;28;20029;-66
2021/09/29 08:12:44;;;;;;;0.73;0.60;;;;;;;12.01;58.10;101012.31;7990540;28;20040;-65
2021/09/29 08:16:35;;;;;;;1.25;0.75;;;;;;;12.08;58.23;101021.47;7983533;28;20497;-66
2021/09/29 08:20:28;;;;;;;1.08;0.85;;;;;;;12.13;58.09;101033.47;7993756;28;20018;-66
2021/09/29 08:24:23;;;;;;;3.03;1.00;;;;;;;12.16;58.48;101031.47;7993784;28;20515;-66
2021/09/29 08:32:38;;;;;;;0.63;0.57;;;;;;;12.22;58.41;101017.03;7966768;28;20028;-64
2021/09/29 08:36:30;;;;;;;2.78;1.20;;;;;;;12.24;58.44;101000.16;7980497;28;20060;-66
2021/09/29 08:40:26;;;;;;;1.92;1.08;;;;;;;12.27;58.67;101009.66;7982680;28;20029;-65
2021/09/29 08:48:36;;;;;;;1.30;0.77;;;;;;;12.42;58.79;101024.34;7984048;28;20040;-65
2021/09/29 09:17:08;;;;;;;0.40;0.40;;;;;;;12.91;58.23;101072.63;7977297;28;20029;-67
2021/09/29 09:21:05;;;;;;;0.50;0.50;;;;;;;12.89;57.89;101071.88;7970712;28;20034;-67
2021/09/29 09:24:56;;;;;;;0.82;0.55;;;;;;;12.86;57.99;101080.00;7971528;28;20061;-67
2021/09/29 09:28:48;;;;;;;0.43;0.43;;;;;;;12.83;58.03;101088.16;7982069;28;20506;-67
2021/09/29 09:32:42;;;;;;;0.65;0.50;;;;;;;12.80;57.89;101093.66;7981752;28;20639;-67
2021/09/29 09:36:36;;;;;;;0.98;0.40;;;;;;;12.77;57.63;101096.47;7980022;28;20041;-66
2021/09/29 09:40:32;;;;;;;0.90;0.50;;;;;;;12.73;57.77;101102.09;7994543;28;20033;-66
2021/09/29 09:44:31;;;;;;;0.63;0.50;;;;;;;12.68;57.86;101110.31;7971888;28;20034;-65
2021/09/29 09:48:27;;;;;;;1.52;0.50;;;;;;;12.66;57.90;101114.03;7976289;28;20399;-66
2021/09/29 09:52:44;;;;;;;1.42;0.60;;;;;;;12.64;57.90;101113.31;7992742;28;20056;-66
2021/09/29 09:56:36;;;;;;;0.50;0.50;;;;;;;12.61;58.05;101113.50;7960451;28;20033;-66
2021/09/29 10:00:28;;;;;;;0.90;0.80;;;;;;;12.56;57.77;101112.97;7982774;28;20116;-66
2021/09/29 10:04:20;;;;;;;0.65;0.50;;;;;;;12.57;57.84;101114.63;7984748;28;20028;-66
2021/09/29 10:08:14;;;;;;;1.27;0.77;;;;;;;12.57;58.16;101097.03;7986083;28;20029;-66
2021/09/29 10:28:28;;;;;;;1.08;0.60;;;;;;;12.84;58.54;101089.84;7973030;28;20146;-66
2021/09/29 10:40:31;;;;;;;0.88;0.50;;;;;;;13.13;57.96;101111.47;7988871;28;20673;-66
2021/09/29 10:44:29;;;;;;;0.47;0.47;;;;;;;13.16;58.02;101107.75;7987473;28;20112;-66
2021/09/29 10:49:12;;;;;;;0.50;0.50;;;;;;;13.17;58.07;101123.47;7993198;28;20029;-66
2021/09/29 11:30:18;;;;;;;2.63;1.00;;;;;;;13.55;57.47;101159.44;7989193;28;20520;-69
2021/09/29 11:34:12;;;;;;;0.98;0.88;;;;;;;13.59;57.67;101164.38;7988141;28;20120;-70
2021/09/29 12:08:06;;;;;;;1.63;0.93;;;;;;;13.80;57.05;101196.25;7980041;28;20025;-65
2021/09/29 12:12:21;;;;;;;2.10;0.90;;;;;;;13.76;56.92;101187.69;7969422;28;20034;-67
2021/09/29 12:16:23;;;;;;;1.15;0.90;;;;;;;13.78;56.89;101188.44;7989927;28;20036;-67
2021/09/29 12:20:21;;;;;;;1.92;1.00;;;;;;;13.82;56.92;101199.59;7988598;28;20108;-67
2021/09/29 12:24:13;;;;;;;;;;;;;;;13.74;57.13;101202.81;7993192;28;20060;-67
2021/09/29 12:28:31;;;;;;;1.65;0.90;;;;;;;13.89;56.86;101200.81;7993950;28;19916;-67
2021/09/29 12:36:36;;;;;;;1.85;0.80;;;;;;;14.04;56.36;101233.19;7988264;28;20033;-67
2021/09/29 12:40:30;;;;;;;1.35;0.90;;;;;;;14.04;55.88;101320.38;7980019;28;20163;-67
2021/09/29 12:44:20;;;;;;;3.80;0.60;;;;;;;13.85;54.88;101353.38;7973763;28;20030;-67
2021/09/29 12:48:12;;;;;;;0.52;0.40;;;;;;;13.44;54.17;101337.84;7986059;28;20025;-67
2021/09/29 12:52:12;;;;;;;1.27;0.70;;;;;;;13.11;54.44;101329.63;7986188;28;20115;-67
2021/09/29 12:56:11;;;;;;;2.30;0.63;;;;;;;12.83;54.39;101328.06;7987118;28;20125;-67
2021/09/29 13:00:03;;;;;;;0.45;0.45;;;;;;;12.65;54.43;101305.56;7991559;28;20029;-67
2021/09/29 13:03:53;;;;;;;0.70;0.70;;;;;;;12.57;54.61;101317.56;7988125;28;20055;-67
2021/09/29 13:07:44;;;;;;;0.70;0.57;;;;;;;12.53;54.48;101309.00;7989659;28;20858;-67
2021/09/29 13:11:34;;;;;;;0.68;0.68;;;;;;;12.53;54.97;101328.31;7984729;28;20406;-67
2021/09/29 13:15:25;;;;;;;1.70;0.50;;;;;;;12.57;55.06;101318.41;7996187;28;20037;-67
2021/09/29 13:19:21;;;;;;;2.40;0.60;;;;;;;12.60;54.96;101317.41;7991796;28;20681;-67
2021/09/29 13:23:24;;;;;;;0.70;0.70;;;;;;;12.63;55.14;101323.31;7984527;28;20040;-67
2021/09/29 13:27:28;;;;;;;1.15;0.60;;;;;;;12.64;55.39;101340.78;7980755;28;20458;-67
2021/09/29 13:39:33;;;;;;;0.50;0.50;;;;;;;12.72;55.16;101350.84;7971181;28;20033;-67
2021/09/29 13:43:24;;;;;;;0.70;0.70;;;;;;;12.77;54.96;101354.84;7988572;28;20033;-67
2021/09/29 13:47:15;;;;;;;2.35;0.70;;;;;;;12.80;55.32;101361.72;7986735;28;20036;-67
2021/09/29 13:51:05;;;;;;;0.75;0.60;;;;;;;12.81;55.40;101366.84;7986012;28;20108;-67
2021/09/29 13:55:02;;;;;;;0.88;0.52;;;;;;;12.79;55.34;101373.19;7987052;28;20489;-67
2021/09/29 14:35:41;;;;;;;1.30;0.77;;;;;;;12.93;55.38;101400.31;7983230;28;20036;-67
2021/09/29 14:39:31;;;;;;;1.08;0.80;;;;;;;13.02;55.35;101408.53;7983180;28;20035;-67
2021/09/29 14:43:22;;;;;;;1.58;0.60;;;;;;;13.10;55.43;101414.13;7963201;28;20029;-67
2021/09/29 14:47:13;;;;;;;1.85;0.73;;;;;;;13.17;55.38;101418.06;7983508;28;20561;-67
2021/09/29 14:51:06;;;;;;;6.82;1.27;;;;;;;13.17;54.80;101418.06;7987925;28;20031;-67
2021/09/29 14:54:57;;;;;;;0.85;0.85;;;;;;;13.24;55.17;101429.88;7989145;28;20084;-67
2021/09/29 14:58:48;;;;;;;1.48;0.70;;;;;;;13.31;54.87;101436.41;7980681;28;20075;-67
2021/09/29 15:02:38;;;;;;;1.98;0.80;;;;;;;13.37;54.98;101431.59;7976386;28;20059;-67
2021/09/29 15:06:29;;;;;;;1.40;0.90;;;;;;;13.38;54.72;101433.28;7975598;28;20052;-67
2021/09/29 15:10:20;;;;;;;1.38;0.88;;;;;;;13.38;54.54;101435.06;7975454;28;20041;-67
2021/09/29 15:14:13;;;;;;;1.08;0.98;;;;;;;13.38;54.29;101454.41;7980336;28;20112;-67
2021/09/29 15:18:10;;;;;;;1.95;1.02;;;;;;;13.38;53.96;101448.25;7979496;28;20492;-67
2021/09/29 15:22:24;;;;;;;0.63;0.57;;;;;;;13.38;53.89;101456.19;7979806;28;20033;-67
2021/09/29 15:30:45;;;;;;;1.80;0.80;;;;;;;13.25;53.42;101464.09;7983377;28;20029;-67
2021/09/29 15:55:00;;;;;;;2.33;0.65;;;;;;;12.99;52.96;101494.84;7977101;28;20029;-67
2021/09/29 15:59:16;;;;;;;2.20;1.10;;;;;;;12.98;52.86;101500.22;7982624;28;20057;-67
2021/09/29 16:15:11;;;;;;;2.30;0.60;;;;;;;12.84;52.60;101519.59;7982827;28;20057;-67
2021/09/29 16:31:35;;;;;;;3.00;0.98;;;;;;;12.76;52.33;101542.97;7974825;28;20034;-67
2021/09/29 16:35:27;;;;;;;0.70;0.70;;;;;;;12.72;52.55;101546.75;7979440;28;20037;-67
2021/09/29 16:39:18;;;;;;;5.30;1.17;;;;;;;12.71;52.44;101560.03;7986891;28;21437;-67
2021/09/29 16:43:09;;;;;;;2.00;0.82;;;;;;;12.69;52.66;101560.13;7977746;28;20435;-70
2021/09/29 16:47:00;;;;;;;3.65;1.00;;;;;;;12.69;52.54;101562.75;7982983;28;20552;-70
2021/09/29 16:54:41;;;;;;;2.22;0.88;;;;;;;12.65;52.22;101587.63;7982492;28;20501;-69
2021/09/29 16:58:39;;;;;;;1.98;1.00;;;;;;;12.66;52.26;101593.75;7979546;28;20044;-69
2021/09/29 17:02:30;;;;;;;5.38;1.05;;;;;;;12.62;52.19;101593.09;7982337;28;20060;-73
2021/09/29 17:06:21;;;;;;;2.58;0.90;;;;;;;12.64;52.38;101608.81;7990988;28;20036;-72
2021/09/29 17:10:14;;;;;;;4.63;1.10;;;;;;;12.57;52.22;101604.81;7986476;28;20540;-71
2021/09/29 17:14:05;;;;;;;4.07;1.00;;;;;;;12.60;52.20;101607.31;7989450;28;20493;-72
2021/09/29 17:17:55;;;;;;;3.95;0.80;;;;;;;12.51;52.08;101622.75;7968086;28;20095;-71
2021/09/29 17:21:46;;;;;;;1.70;0.73;;;;;;;12.45;52.24;101633.66;7978229;28;20051;-70
2021/09/29 17:25:37;;;;;;;2.75;0.80;;;;;;;12.38;52.07;101637.59;7980718;28;20061;-71
2021/09/29 17:29:27;;;;;;;1.38;0.60;;;;;;;12.30;52.04;101639.00;7973670;28;20048;-71
2021/09/29 17:54:33;;;;;;;2.20;0.88;;;;;;;11.81;52.17;101693.78;7996971;28;20044;-73
2021/09/29 17:58:24;;;;;;;3.15;0.60;;;;;;;11.77;52.15;101694.88;7991475;28;20032;-73
2021/09/29 18:02:19;;;;;;;1.00;0.90;;;;;;;11.70;51.91;101704.91;7991484;28;20385;-73
2021/09/29 18:06:15;;;;;;;1.73;0.70;;;;;;;11.71;52.05;101722.41;7980492;28;20029;-74
2021/09/29 18:10:08;;;;;;;2.35;0.80;;;;;;;11.72;51.91;101734.63;7976148;28;20048;-73
2021/09/29 18:13:59;;;;;;;1.23;0.63;;;;;;;11.71;51.81;101746.09;7977996;28;20088;-74
2021/09/29 18:17:49;;;;;;;1.00;0.70;;;;;;;11.70;51.82;101749.66;7977942;28;20026;-76
2021/09/29 18:21:41;;;;;;;1.45;0.75;;;;;;;11.66;51.95;101750.75;7991703;28;20049;-71
2021/09/29 18:25:35;;;;;;;1.25;0.60;;;;;;;11.68;51.67;101756.81;7987456;28;20040;-76
2021/09/29 18:29:26;;;;;;;1.27;0.65;;;;;;;11.64;51.76;101744.75;7988122;28;20115;-76
2021/09/29 18:33:24;;;;;;;0.63;0.50;;;;;;;11.62;51.78;101749.25;7990283;28;20027;-75
2021/09/29 18:37:15;;;;;;;;;;;;;;;11.52;52.28;101761.19;7992817;28;20037;-71
2021/09/29 18:41:07;;;;;;;1.40;0.70;;;;;;;11.57;51.81;101751.28;7983326;28;19916;-73
2021/09/29 18:44:58;;;;;;;1.27;0.82;;;;;;;11.47;51.58;101735.16;8000087;28;20040;-75
2021/09/29 18:48:53;;;;;;;0.52;0.50;;;;;;;11.55;51.59;101761.88;7985808;28;20042;-74
2021/09/29 18:52:44;;;;;;;1.58;0.50;;;;;;;11.48;51.63;101757.03;7973675;28;20064;-74
2021/09/29 19:08:51;;;;;;;0.50;0.50;;;;;;;11.30;51.81;101797.50;7973723;28;20446;-73
2021/09/29 19:12:41;;;;;;;0.88;0.68;;;;;;;11.30;51.84;101800.13;7979618;28;20033;-73
2021/09/29 19:16:36;;;;;;;1.55;0.77;;;;;;;11.33;51.65;101805.22;7988009;28;20044;-72
2021/09/29 19:20:27;;;;;;;2.35;0.80;;;;;;;11.28;51.63;101812.50;7984091;28;20494;-72
2021/09/29 19:24:18;;;;;;;1.75;0.80;;;;;;;11.25;51.61;101815.31;7984734;28;20509;-72
2021/09/29 19:28:23;;;;;;;1.23;0.82;;;;;;;11.23;51.76;101828.56;7985645;28;20044;-72
2021/09/29 19:32:14;;;;;;;1.30;0.80;;;;;;;11.21;51.59;101832.19;7991785;28;20025;-74
2021/09/29 19:36:05;;;;;;;3.60;0.50;;;;;;;11.20;51.63;101835.75;7993614;28;20044;-72
2021/09/29 19:39:56;;;;;;;1.98;1.02;;;;;;;11.16;51.35;101835.06;7994927;28;20075;-71
2021/09/29 19:43:47;;;;;;;1.92;0.70;;;;;;;11.13;51.56;101835.22;7977655;28;20095;-70
2021/09/29 20:07:59;;;;;;;0.73;0.60;;;;;;;10.95;51.79;101849.34;7985221;28;20061;-71
2021/09/29 20:11:49;;;;;;;0.88;0.77;;;;;;;10.88;51.79;101861.97;7981157;28;20147;-71
2021/09/29 20:15:40;;;;;;;0.73;0.70;;;;;;;10.92;51.69;101875.78;7993027;28;20044;-70
2021/09/29 20:19:31;;;;;;;0.73;0.55;;;;;;;10.91;51.93;101874.09;7983674;28;20040;-70
2021/09/29 20:23:22;;;;;;;1.10;0.70;;;;;;;10.91;51.84;101880.19;7992214;28;20539;-69
2021/09/29 20:27:13;;;;;;;3.05;0.77;;;;;;;10.92;51.95;101883.69;7993482;28;20482;-69
2021/09/29 20:31:05;;;;;;;1.50;0.50;;;;;;;10.94;52.12;101882.66;7992941;28;20066;-70
2021/09/29 20:43:22;;;;;;;2.08;0.80;;;;;;;10.96;52.18;101917.63;7964758;28;20040;-70
2021/09/29 20:47:15;;;;;;;0.80;0.70;;;;;;;10.95;52.20;101915.06;7965845;28;20045;-69
2021/09/29 20:51:06;;;;;;;1.98;1.05;;;;;;;10.86;52.20;101905.88;7956968;28;20035;-70
2021/09/29 20:54:59;;;;;;;0.90;0.65;;;;;;;10.82;52.25;101914.84;7977263;28;20060;-70
2021/09/29 20:58:50;;;;;;;0.65;0.63;;;;;;;10.82;51.77;101925.34;7968968;28;20109;-70
2021/09/29 21:02:42;;;;;;;0.60;0.60;;;;;;;10.75;52.19;101912.59;7968941;28;20036;-70
2021/09/29 21:06:33;;;;;;;0.77;0.77;;;;;;;10.76;52.04;101919.56;7984439;28;20041;-70
2021/09/29 21:10:26;;;;;;;0.80;0.60;;;;;;;10.68;52.72;101910.28;7993506;28;20072;-70
2021/09/29 21:14:21;;;;;;;2.20;0.80;;;;;;;10.70;52.28;101916.31;7985924;28;20486;-70
2021/09/29 21:18:13;;;;;;;2.05;0.80;;;;;;;10.68;52.23;101912.06;7992554;28;20025;-70
2021/09/29 21:22:04;;;;;;;0.75;0.75;;;;;;;10.65;52.39;101912.22;7979910;28;20364;-70
2021/09/29 21:25:54;;;;;;;1.65;0.80;;;;;;;10.62;52.33;101913.22;7977351;28;20486;-70
2021/09/29 21:29:45;;;;;;;2.25;0.70;;;;;;;10.58;52.18;101902.94;7978993;28;20041;-70
2021/09/29 21:33:38;;;;;;;0.60;0.52;;;;;;;10.51;52.28;101906.78;7967820;28;20041;-70
2021/09/29 21:37:44;;;;;;;1.27;0.60;;;;;;;10.50;52.15;101905.09;7983235;28;20688;-70
2021/09/29 21:41:46;;;;;;;1.15;0.60;;;;;;;10.43;52.29;101912.41;7984017;28;20092;-70
2021/09/29 22:14:39;;;;;;;1.88;0.70;;;;;;;10.19;52.56;101924.09;7991753;28;20393;-70
2021/09/29 23:07:48;;;;;;;2.65;0.98;;;;;;;9.97;53.23;101968.88;7989564;28;20032;-70
2021/09/29 23:32:36;;;;;;;1.85;0.90;;;;;;;9.81;53.24;101982.78;7979829;28;20638;-70
2021/09/29 23:36:27;;;;;;;2.65;1.10;;;;;;;9.78;53.08;101997.72;7981872;28;20025;-70
2021/09/29 23:40:25;;;;;;;3.45;1.08;;;;;;;9.76;53.15;101993.47;7983416;28;20033;-70
2021/09/29 23:44:16;;;;;;;0.95;0.80;;;;;;;9.74;52.90;101990.91;7981022;28;20592;-70
2021/09/29 23:48:07;;;;;;;1.05;0.80;;;;;;;9.70;53.27;101994.59;7985928;28;20043;-70
2021/09/29 23:51:57;;;;;;;1.95;1.00;;;;;;;9.72;53.32;101999.78;7986901;28;20482;-70
2021/09/29 23:55:49;;;;;;;1.42;0.90;;;;;;;9.71;53.38;101998.06;7987226;28;20072;-70
2021/09/29 23:59:39;;;;;;;2.67;1.00;;;;;;;9.68;53.14;102000.84;7972491;28;20482;-70
